createdAt,value
2022-10-19T00:00:01.014Z,100565.98
2022-10-19T00:04:07.825Z,100566.02
2022-10-19T00:08:10.792Z,100563.63
2022-10-19T00:12:12.862Z,100560.61
2022-10-19T00:16:16.506Z,100558.91
2022-10-19T00:20:18.396Z,100559.80
2022-10-19T00:24:20.840Z,100565.45
2022-10-19T00:28:22.700Z,100562.08
2022-10-19T00:32:24.548Z,100564.59
2022-10-19T00:36:32.514Z,100559.67
2022-10-19T00:40:38.732Z,100561.50
2022-10-19T00:44:43.757Z,100562.54
2022-10-19T00:48:45.982Z,100561.36
2022-10-19T00:52:47.935Z,100557.21
2022-10-19T00:56:54.375Z,100551.46
2022-10-19T01:00:57.633Z,100551.95
2022-10-19T01:05:00.802Z,100546.33
2022-10-19T01:09:03.092Z,100544.73
2022-10-19T01:13:42.212Z,100544.91
2022-10-19T01:17:54.869Z,100542.66
2022-10-19T01:22:26.988Z,100541.38
2022-10-19T01:26:59.281Z,100544.03
2022-10-19T01:31:26.128Z,100538.35
2022-10-19T01:35:30.770Z,100532.67
2022-10-19T01:39:45.274Z,100538.17
2022-10-19T01:43:55.899Z,100531.19
2022-10-19T01:48:18.579Z,100525.38
2022-10-19T01:52:23.289Z,100527.61
2022-10-19T01:56:27.919Z,100526.93
2022-10-19T02:00:32.308Z,100525.63
2022-10-19T02:04:36.368Z,100528.63
2022-10-19T02:08:43.893Z,100527.14
2022-10-19T02:12:47.619Z,100528.50
2022-10-19T02:16:54.723Z,100527.41
2022-10-19T02:20:57.866Z,100528.83
2022-10-19T02:25:00.149Z,100528.48
2022-10-19T02:29:02.092Z,100523.98
2022-10-19T02:33:03.997Z,100521.17
2022-10-19T02:37:06.460Z,100511.77
2022-10-19T02:41:21.180Z,100502.98
2022-10-19T02:45:30.537Z,100518.18
2022-10-19T02:49:36.321Z,100514.32
2022-10-19T02:53:38.186Z,100511.04
2022-10-19T02:57:40.050Z,100507.90
2022-10-19T03:01:42.076Z,100505.80
2022-10-19T03:05:43.948Z,100506.31
2022-10-19T03:09:45.973Z,100500.46
2022-10-19T03:17:54.874Z,100504.16
2022-10-19T03:21:56.880Z,100502.10
2022-10-19T03:25:58.760Z,100502.76
2022-10-19T03:30:00.611Z,100501.04
2022-10-19T03:34:02.983Z,100500.23
2022-10-19T03:38:04.818Z,100501.63
2022-10-19T03:42:06.766Z,100498.77
2022-10-19T03:46:08.840Z,100495.96
2022-10-19T03:50:13.581Z,100493.05
2022-10-19T03:54:16.612Z,100491.72
2022-10-19T03:58:18.565Z,100485.45
2022-10-19T04:02:20.473Z,100484.27
2022-10-19T04:06:28.126Z,100484.38
2022-10-19T04:10:31.083Z,100484.53
2022-10-19T04:14:39.329Z,100477.41
2022-10-19T04:18:55.245Z,100479.75
2022-10-19T04:22:57.109Z,100474.91
2022-10-19T04:26:58.996Z,100470.88
2022-10-19T04:31:05.993Z,100466.90
2022-10-19T04:35:07.955Z,100463.07
2022-10-19T04:39:09.905Z,100458.44
2022-10-19T04:43:11.741Z,100453.54
2022-10-19T04:47:13.607Z,100451.80
2022-10-19T04:51:16.669Z,100454.26
2022-10-19T04:55:19.029Z,100457.98
2022-10-19T04:59:21.234Z,100455.71
2022-10-19T05:03:23.271Z,100451.47
2022-10-19T05:07:25.323Z,100446.86
2022-10-19T05:11:27.814Z,100444.94
2022-10-19T05:15:30.470Z,100436.81
2022-10-19T05:19:32.550Z,100436.54
2022-10-19T05:23:34.843Z,100434.25
2022-10-19T05:27:37.219Z,100433.90
2022-10-19T05:31:39.916Z,100434.58
2022-10-19T05:35:42.228Z,100426.06
2022-10-19T05:39:44.383Z,100425.20
2022-10-19T05:43:47.060Z,100420.11
2022-10-19T05:47:48.908Z,100421.17
2022-10-19T05:51:50.848Z,100424.22
2022-10-19T05:55:52.803Z,100427.29
2022-10-19T05:59:57.925Z,100429.06
2022-10-19T06:04:01.457Z,100430.73
2022-10-19T06:08:03.535Z,100427.52
2022-10-19T06:12:05.400Z,100424.95
2022-10-19T06:16:09.018Z,100428.91
2022-10-19T06:20:11.253Z,100430.44
2022-10-19T06:24:13.189Z,100429.80
2022-10-19T06:28:15.121Z,100430.12
2022-10-19T06:32:17.230Z,100425.56
2022-10-19T06:36:22.017Z,100425.88
2022-10-19T06:40:25.606Z,100426.38
2022-10-19T06:44:27.602Z,100430.21
2022-10-19T06:48:29.464Z,100429.52
2022-10-19T06:52:32.586Z,100421.75
2022-10-19T06:56:34.955Z,100422.09
2022-10-19T07:00:36.815Z,100428.22
2022-10-19T07:04:38.857Z,100428.61
2022-10-19T07:08:42.301Z,100428.13
2022-10-19T07:12:44.270Z,100434.46
2022-10-19T07:16:46.245Z,100440.04
2022-10-19T07:20:59.129Z,100442.27
2022-10-19T07:25:01.038Z,100435.15
2022-10-19T07:29:03.860Z,100436.29
2022-10-19T07:33:06.384Z,100443.92
2022-10-19T07:37:08.271Z,100445.29
2022-10-19T07:41:12.945Z,100442.39
2022-10-19T07:45:14.941Z,100432.85
2022-10-19T07:49:18.635Z,100433.80
2022-10-19T07:53:20.799Z,100430.17
2022-10-19T07:57:22.640Z,100430.40
2022-10-19T08:01:31.461Z,100432.11
2022-10-19T08:05:34.596Z,100434.67
2022-10-19T08:09:53.881Z,100437.64
2022-10-19T08:13:58.717Z,100430.41
2022-10-19T08:18:00.652Z,100432.97
2022-10-19T08:22:02.519Z,100424.05
2022-10-19T08:26:04.533Z,100428.09
2022-10-19T08:30:06.980Z,100433.39
2022-10-19T08:34:09.540Z,100432.11
2022-10-19T08:38:11.433Z,100432.23
2022-10-19T08:42:22.675Z,100426.35
2022-10-19T08:46:29.669Z,100422.13
2022-10-19T08:50:38.527Z,100423.27
2022-10-19T08:59:13.668Z,100422.08
2022-10-19T09:03:27.095Z,100423.91
2022-10-19T09:07:45.200Z,100432.39
2022-10-19T09:11:50.354Z,100435.58
2022-10-19T09:15:54.822Z,100440.66
2022-10-19T09:19:57.991Z,100439.80
2022-10-19T09:24:15.732Z,100432.86
2022-10-19T09:28:55.591Z,100430.79
2022-10-19T09:33:01.608Z,100428.20
2022-10-19T09:37:03.904Z,100441.78
2022-10-19T09:41:18.870Z,100441.92
2022-10-19T09:45:38.329Z,100445.29
2022-10-19T09:49:45.782Z,100442.20
2022-10-19T09:53:52.451Z,100441.57
2022-10-19T09:58:04.110Z,100439.79
2022-10-19T10:02:05.918Z,100443.83
2022-10-19T10:06:12.157Z,100444.61
2022-10-19T10:10:29.760Z,100451.83
2022-10-19T10:14:36.102Z,100445.09
2022-10-19T10:18:54.027Z,100448.92
2022-10-19T10:22:59.865Z,100451.33
2022-10-19T10:27:05.361Z,100439.91
2022-10-19T10:31:08.541Z,100441.38
2022-10-19T10:35:20.993Z,100444.49
2022-10-19T10:39:26.540Z,100444.62
2022-10-19T10:43:34.403Z,100444.65
2022-10-19T10:47:39.038Z,100443.50
2022-10-19T10:51:49.203Z,100443.34
2022-10-19T10:55:57.212Z,100445.09
2022-10-19T11:00:07.784Z,100443.55
2022-10-19T11:04:16.133Z,100435.27
2022-10-19T11:08:43.880Z,100437.61
2022-10-19T11:12:51.750Z,100485.91
2022-10-19T11:16:57.356Z,100477.44
2022-10-19T11:21:25.927Z,100469.68
2022-10-19T11:25:48.878Z,100472.79
2022-10-19T11:30:12.847Z,100471.77
2022-10-19T11:34:52.515Z,100475.52
2022-10-19T11:39:34.130Z,100474.83
2022-10-19T11:43:51.173Z,100465.36
2022-10-19T11:48:09.739Z,100465.27
2022-10-19T11:52:30.004Z,100465.99
2022-10-19T11:56:58.072Z,100464.46
2022-10-19T12:01:23.463Z,100459.60
2022-10-19T12:05:37.636Z,100460.21
2022-10-19T12:09:47.464Z,100463.91
2022-10-19T12:14:00.539Z,100466.21
2022-10-19T12:18:36.252Z,100459.20
2022-10-19T12:22:39.841Z,100459.31
2022-10-19T12:26:44.254Z,100457.02
2022-10-19T12:30:46.664Z,100461.96
2022-10-19T12:35:03.239Z,100465.59
2022-10-19T12:39:07.921Z,100465.23
2022-10-19T12:43:12.674Z,100462.53
2022-10-19T12:47:23.053Z,100452.18
2022-10-19T12:51:25.009Z,100452.37
2022-10-19T12:55:34.480Z,100456.80
2022-10-19T12:59:37.218Z,100453.39
2022-10-19T13:03:44.542Z,100452.08
2022-10-19T13:12:17.739Z,100461.82
2022-10-19T13:16:29.674Z,100461.79
2022-10-19T13:20:33.400Z,100476.56
2022-10-19T13:24:36.990Z,100484.20
2022-10-19T13:28:52.902Z,100493.05
2022-10-19T13:32:54.835Z,100500.04
2022-10-19T13:37:02.045Z,100499.36
2022-10-19T13:41:15.469Z,100498.06
2022-10-19T13:45:24.526Z,100503.38
2022-10-19T13:49:49.288Z,100502.42
2022-10-19T13:54:13.535Z,100506.75
2022-10-19T13:58:53.901Z,100504.20
2022-10-19T14:03:01.466Z,100503.98
2022-10-19T14:07:15.357Z,100504.59
2022-10-19T14:11:19.030Z,100508.33
2022-10-19T14:15:27.602Z,100507.57
2022-10-19T14:19:30.862Z,100515.61
2022-10-19T14:23:39.359Z,100527.09
2022-10-19T14:27:41.965Z,100550.48
2022-10-19T14:31:43.867Z,100567.23
2022-10-19T14:35:49.634Z,100576.20
2022-10-19T14:40:05.278Z,100576.34
2022-10-19T14:44:40.801Z,100578.40
2022-10-19T14:48:45.420Z,100573.44
2022-10-19T14:52:51.796Z,100569.32
2022-10-19T14:56:59.257Z,100580.17
2022-10-19T15:01:01.398Z,100591.48
2022-10-19T15:05:05.538Z,100590.14
2022-10-19T15:09:24.705Z,100595.95
2022-10-19T15:13:42.680Z,100606.70
2022-10-19T15:17:54.027Z,100610.73
2022-10-19T15:22:14.023Z,100608.26
2022-10-19T15:26:21.686Z,100608.27
2022-10-19T15:30:28.291Z,100619.23
2022-10-19T15:34:30.842Z,100625.48
2022-10-19T15:38:34.354Z,100629.23
2022-10-19T15:42:44.152Z,100633.51
2022-10-19T15:46:49.154Z,100634.95
2022-10-19T15:50:53.853Z,100640.08
2022-10-19T15:54:58.088Z,100652.13
2022-10-19T15:59:02.675Z,100662.83
2022-10-19T16:03:04.739Z,100665.96
2022-10-19T16:07:06.792Z,100673.34
2022-10-19T16:11:13.272Z,100678.55
2022-10-19T16:15:21.864Z,100685.79
2022-10-19T16:19:23.864Z,100696.74
2022-10-19T16:23:26.999Z,100712.20
2022-10-19T16:27:29.060Z,100717.10
2022-10-19T16:31:31.213Z,100722.89
2022-10-19T16:35:33.281Z,100726.05
2022-10-19T16:39:35.365Z,100730.55
2022-10-19T16:43:37.916Z,100736.02
2022-10-19T16:47:39.971Z,100741.36
2022-10-19T16:51:42.256Z,100740.64
2022-10-19T16:55:44.179Z,100746.50
2022-10-19T16:59:50.915Z,100750.75
2022-10-19T17:03:53.351Z,100761.17
2022-10-19T17:07:55.297Z,100762.47
2022-10-19T17:11:57.249Z,100770.21
2022-10-19T17:16:02.638Z,100775.78
2022-10-19T17:20:05.167Z,100777.02
2022-10-19T17:24:13.837Z,100777.94
2022-10-19T17:28:19.223Z,100781.85
2022-10-19T17:32:21.988Z,100784.27
2022-10-19T17:36:28.085Z,100786.85
2022-10-19T17:40:30.081Z,100793.66
2022-10-19T17:44:32.113Z,100798.95
2022-10-19T17:48:35.773Z,100798.95
2022-10-19T17:52:37.674Z,100808.83
2022-10-19T17:56:41.196Z,100815.92
2022-10-19T18:00:43.561Z,100819.05
2022-10-19T18:04:45.529Z,100822.30
2022-10-19T18:08:50.703Z,100825.93
2022-10-19T18:12:52.791Z,100831.32
2022-10-19T18:16:54.729Z,100829.37
2022-10-19T18:20:57.332Z,100832.25
2022-10-19T18:24:59.257Z,100836.80
2022-10-19T18:29:09.552Z,100841.56
2022-10-19T18:33:11.547Z,100838.18
2022-10-19T18:37:13.608Z,100836.84
2022-10-19T18:41:15.532Z,100836.98
2022-10-19T18:45:17.680Z,100837.98
2022-10-19T18:49:20.023Z,100841.05
2022-10-19T18:53:22.526Z,100845.56
2022-10-19T18:57:28.248Z,100851.35
2022-10-19T19:01:33.408Z,100849.96
2022-10-19T19:05:35.424Z,100855.22
2022-10-19T19:09:37.857Z,100856.84
2022-10-19T19:13:40.830Z,100858.35
2022-10-19T19:17:42.967Z,100860.13
2022-10-19T19:21:45.853Z,100860.75
2022-10-19T19:25:47.740Z,100865.63
2022-10-19T19:29:57.570Z,100864.80
2022-10-19T19:34:00.792Z,100873.75
2022-10-19T19:38:02.710Z,100882.84
2022-10-19T19:42:04.799Z,100889.90
2022-10-19T19:46:12.089Z,100890.36
2022-10-19T19:50:14.045Z,100897.02
2022-10-19T19:54:15.902Z,100902.59
2022-10-19T19:58:18.508Z,100910.46
2022-10-19T20:02:20.929Z,100913.99
2022-10-19T20:06:25.778Z,100919.70
2022-10-19T20:10:28.229Z,100928.14
2022-10-19T20:14:30.177Z,100934.16
2022-10-19T20:18:32.099Z,100941.84
2022-10-19T20:22:34.164Z,100949.25
2022-10-19T20:26:36.220Z,100952.35
2022-10-19T20:30:38.087Z,100961.63
2022-10-19T20:34:40.033Z,100964.27
2022-10-19T20:38:48.376Z,100969.29
2022-10-19T20:42:50.288Z,100977.34
2022-10-19T20:46:52.141Z,100981.30
2022-10-19T20:50:54.020Z,100980.97
2022-10-19T20:54:55.997Z,100983.84
2022-10-19T20:59:04.530Z,100984.52
2022-10-19T21:03:06.626Z,100984.20
2022-10-19T21:07:08.645Z,100986.02
2022-10-19T21:11:16.720Z,100995.48
2022-10-19T21:15:18.585Z,100990.31
2022-10-19T21:19:23.383Z,100992.15
2022-10-19T21:23:25.321Z,100997.60
2022-10-19T21:27:27.170Z,100994.67
2022-10-19T21:31:29.165Z,100992.98
2022-10-19T21:35:31.490Z,100993.28
2022-10-19T21:39:33.485Z,100994.55
2022-10-19T21:43:35.583Z,100996.63
2022-10-19T21:47:37.948Z,101002.21
2022-10-19T21:51:56.633Z,101002.23
2022-10-19T21:55:59.057Z,101003.88
2022-10-19T22:00:01.028Z,100998.23
2022-10-19T22:04:05.202Z,101002.90
2022-10-19T22:08:07.176Z,101004.14
2022-10-19T22:12:09.346Z,101003.01
2022-10-19T22:16:17.406Z,101007.48
2022-10-19T22:20:19.313Z,101009.13
2022-10-19T22:24:21.254Z,101013.69
2022-10-19T22:28:23.275Z,101014.09
2022-10-19T22:32:25.311Z,101013.15
2022-10-19T22:36:27.845Z,101020.55
2022-10-19T22:40:29.720Z,101024.84
2022-10-19T22:44:31.934Z,101026.20
2022-10-19T22:48:33.820Z,101029.63
2022-10-19T22:52:35.811Z,101030.42
2022-10-19T22:56:38.155Z,101036.52
2022-10-19T23:00:40.308Z,101040.95
2022-10-19T23:04:42.189Z,101034.95
2022-10-19T23:08:44.696Z,101034.73
2022-10-19T23:12:51.341Z,101034.85
2022-10-19T23:16:53.218Z,101040.53
2022-10-19T23:21:00.930Z,101039.95
2022-10-19T23:25:03.110Z,101047.27
2022-10-19T23:29:05.075Z,101045.84
2022-10-19T23:33:06.880Z,101046.73
2022-10-19T23:37:08.729Z,101050.70
2022-10-19T23:41:11.590Z,101060.62
2022-10-19T23:45:14.874Z,101063.11
2022-10-19T23:49:16.833Z,101069.27
2022-10-19T23:53:18.757Z,101072.73
2022-10-19T23:57:20.651Z,101076.46
